Time;durP1;ratioP1;P1;durP2;ratioP2;P2;SDS_P1;SDS_P2;PMS_P1;PMS_P2;Temp;Humidity;BMP_temperature;BMP_pressure;BME280_temperature;BME280_humidity;BME280_pressure;Samples;Min_cycle;Max_cycle;Signal;HPM_P1;HPM_P2
2022/08/14 00:00:18;;;;;;;6.63;6.23;;;;;;;22.11;63.90;100271.19;5015903;28;20354;-72
2022/08/14 00:02:45;;;;;;;6.57;6.17;;;;;;;22.09;64.49;100259.81;5015795;28;20223;-73
2022/08/14 00:05:14;;;;;;;6.07;5.67;;;;;;;22.07;64.50;100259.09;5015536;28;20628;-72
2022/08/14 00:07:42;;;;;;;5.60;5.30;;;;;;;22.14;64.20;100272.78;5016097;28;20226;-73
2022/08/14 00:10:11;;;;;;;6.67;6.17;;;;;;;22.06;64.92;100264.50;5015681;28;20203;-73
2022/08/14 00:12:40;;;;;;;6.90;6.40;;;;;;;22.07;64.41;100272.38;5015536;28;20230;-73
2022/08/14 00:15:10;;;;;;;6.83;6.43;;;;;;;22.08;64.27;100282.06;5015503;28;20207;-73
2022/08/14 00:17:37;;;;;;;6.67;6.17;;;;;;;22.00;64.35;100287.91;5015548;28;20206;-72
2022/08/14 00:20:04;;;;;;;6.60;6.20;;;;;;;22.00;64.23;100295.88;5015693;28;20206;-73
2022/08/14 00:22:31;;;;;;;6.50;6.10;;;;;;;21.92;64.34;100289.38;5015289;28;20237;-73
2022/08/14 00:24:59;;;;;;;7.00;6.60;;;;;;;21.91;64.49;100285.88;5014890;28;20667;-72
2022/08/14 00:27:25;;;;;;;6.37;5.97;;;;;;;21.89;64.78;100276.31;5015023;28;20207;-73
2022/08/14 00:29:51;;;;;;;6.37;5.77;;;;;;;21.81;64.94;100279.50;5015314;28;20203;-72
2022/08/14 00:32:18;;;;;;;6.63;6.17;;;;;;;21.81;65.22;100276.84;5015359;28;20242;-73
2022/08/14 00:34:44;;;;;;;6.40;5.90;;;;;;;21.71;65.70;100251.88;5015272;28;20269;-73
2022/08/14 00:37:12;;;;;;;6.97;6.50;;;;;;;21.58;66.46;100231.44;5015085;28;20626;-73
2022/08/14 00:39:38;;;;;;;7.43;7.00;;;;;;;21.55;66.67;100213.06;5014893;28;20700;-73
2022/08/14 00:42:06;;;;;;;7.53;6.93;;;;;;;21.48;66.94;100206.44;5015121;28;20253;-73
2022/08/14 00:44:32;;;;;;;6.73;6.33;;;;;;;21.48;66.82;100200.31;5015288;28;20211;-73
2022/08/14 00:46:59;;;;;;;7.53;6.97;;;;;;;21.52;66.32;100212.41;5014956;28;20272;-73
2022/08/14 00:49:27;;;;;;;7.07;6.67;;;;;;;21.51;65.93;100232.81;5014681;28;20206;-73
2022/08/14 00:51:53;;;;;;;7.03;6.63;;;;;;;21.54;66.17;100227.28;5014696;28;20692;-72
2022/08/14 00:54:20;;;;;;;7.27;6.83;;;;;;;21.48;66.94;100206.44;5014532;28;20677;-72
2022/08/14 00:56:47;;;;;;;7.33;6.93;;;;;;;21.44;66.93;100197.00;5014716;28;20203;-72
2022/08/14 00:59:15;;;;;;;6.93;6.53;;;;;;;21.37;67.41;100198.34;5014413;28;20589;-72
2022/08/14 01:01:42;;;;;;;7.30;6.80;;;;;;;21.32;67.76;100177.41;5014514;28;20689;-72
2022/08/14 01:04:09;;;;;;;7.40;6.90;;;;;;;21.31;67.75;100182.84;5014118;28;20226;-72
2022/08/14 01:06:35;;;;;;;7.30;6.73;;;;;;;21.35;67.50;100181.69;5014362;28;20304;-72
2022/08/14 01:09:03;;;;;;;7.20;6.60;;;;;;;21.31;67.47;100181.03;5014770;28;20243;-72
2022/08/14 01:11:29;;;;;;;7.53;7.03;;;;;;;21.34;67.31;100180.81;5014714;28;20207;-72
2022/08/14 01:14:00;;;;;;;7.47;6.97;;;;;;;21.31;67.40;100196.13;5014061;28;20717;-72
2022/08/14 01:16:29;;;;;;;7.20;6.70;;;;;;;21.31;67.24;100189.00;5014358;28;20206;-72
2022/08/14 01:21:44;;;;;;;7.43;7.03;;;;;;;21.29;67.18;100187.38;5014454;28;20210;-72
2022/08/14 01:24:13;;;;;;;6.93;6.47;;;;;;;21.22;67.30;100194.91;5014192;28;20795;-72
2022/08/14 01:26:40;;;;;;;8.27;7.70;;;;;;;21.17;68.13;100176.66;5014103;28;20222;-72
2022/08/14 01:29:07;;;;;;;7.73;7.13;;;;;;;21.17;67.71;100184.63;5013945;28;20215;-72
2022/08/14 01:31:36;;;;;;;7.73;7.13;;;;;;;21.20;67.68;100194.16;5013966;28;20735;-72
2022/08/14 01:34:05;;;;;;;8.23;7.63;;;;;;;21.19;67.50;100208.41;5014324;28;20317;-72
2022/08/14 01:36:36;;;;;;;7.57;6.80;;;;;;;21.21;67.68;100207.34;5014044;28;20206;-72
2022/08/14 01:39:07;;;;;;;7.10;6.60;;;;;;;21.24;68.34;100179.72;5013694;28;20221;-72
2022/08/14 01:41:35;;;;;;;6.70;6.30;;;;;;;21.23;68.30;100172.75;5013848;28;20605;-72
2022/08/14 01:44:05;;;;;;;7.20;6.73;;;;;;;21.16;68.61;100174.94;5013823;28;20305;-72
2022/08/14 01:46:34;;;;;;;7.07;6.53;;;;;;;21.13;68.26;100176.94;5013554;28;20807;-72
2022/08/14 01:49:03;;;;;;;7.93;7.30;;;;;;;21.11;67.93;100186.81;5013743;28;20685;-72
2022/08/14 01:51:32;;;;;;;7.37;6.83;;;;;;;21.10;68.18;100185.13;5013491;28;20203;-72
2022/08/14 01:54:01;;;;;;;7.33;6.83;;;;;;;21.05;68.07;100192.53;5014136;28;20226;-72
2022/08/14 01:56:35;;;;;;;7.90;7.27;;;;;;;20.97;68.29;100171.81;5013590;28;20207;-72
2022/08/14 01:59:02;;;;;;;7.73;7.23;;;;;;;20.92;69.09;100158.88;5013278;28;20207;-72
2022/08/14 02:01:29;;;;;;;7.87;7.23;;;;;;;20.85;69.22;100146.94;5013738;28;20195;-72
2022/08/14 02:03:56;;;;;;;8.17;7.57;;;;;;;20.81;69.66;100133.06;5013461;28;20230;-72
2022/08/14 02:06:23;;;;;;;7.60;7.10;;;;;;;20.77;69.77;100120.09;5013051;28;20293;-72
2022/08/14 02:08:50;;;;;;;7.00;6.60;;;;;;;20.74;69.68;100139.72;5013402;28;20271;-72
2022/08/14 02:11:22;;;;;;;8.87;8.03;;;;;;;20.69;70.08;100131.19;5013623;28;20257;-72
2022/08/14 02:13:53;;;;;;;7.43;6.90;;;;;;;20.69;69.76;100122.41;5013348;28;20323;-72
2022/08/14 02:16:25;;;;;;;6.97;6.57;;;;;;;20.74;70.00;100134.41;5012265;28;20700;-72
2022/08/14 02:18:52;;;;;;;8.33;6.87;;;;;;;20.75;70.09;100133.47;5013209;28;20677;-72
2022/08/14 02:21:20;;;;;;;7.10;6.53;;;;;;;20.75;70.47;100108.72;5013199;28;20673;-72
2022/08/14 02:23:47;;;;;;;7.20;6.70;;;;;;;20.75;70.45;100111.38;5013028;28;20605;-72
2022/08/14 02:26:17;;;;;;;6.77;6.37;;;;;;;20.73;70.14;100122.13;5012786;28;20600;-72
2022/08/14 02:28:44;;;;;;;7.20;6.70;;;;;;;20.68;69.62;100147.22;5012645;28;20607;-72
2022/08/14 02:31:12;;;;;;;7.37;6.90;;;;;;;20.63;69.53;100160.78;5012775;28;20212;-72
2022/08/14 02:33:40;;;;;;;7.00;6.47;;;;;;;20.56;69.79;100152.34;5012874;28;20227;-72
2022/08/14 02:36:08;;;;;;;6.93;6.50;;;;;;;20.59;68.89;100172.53;5012990;28;20298;-72
2022/08/14 02:38:35;;;;;;;8.17;7.60;;;;;;;20.62;68.48;100189.13;5012853;28;20246;-72
2022/08/14 02:41:02;;;;;;;7.00;6.60;;;;;;;20.62;68.34;100190.91;5012911;28;20207;-72
2022/08/14 02:43:29;;;;;;;7.13;6.43;;;;;;;20.58;68.86;100178.78;5012242;28;20597;-72
2022/08/14 02:45:55;;;;;;;7.23;6.73;;;;;;;20.49;69.22;100164.28;5012842;28;20322;-72
2022/08/14 02:48:34;;;;;;;7.20;6.60;;;;;;;20.42;69.80;100158.56;5012720;28;20681;-72
2022/08/14 02:51:02;;;;;;;7.07;6.63;;;;;;;20.35;70.55;100124.56;5012728;28;20625;-72
2022/08/14 02:53:29;;;;;;;7.70;7.20;;;;;;;20.29;70.58;100103.78;5012630;28;20230;-72
2022/08/14 02:55:56;;;;;;;6.73;6.33;;;;;;;20.32;70.33;100109.72;5012354;28;20203;-72
2022/08/14 02:58:23;;;;;;;6.40;6.00;;;;;;;20.35;70.48;100114.81;5012450;28;20261;-72
2022/08/14 03:00:50;;;;;;;6.63;6.23;;;;;;;20.40;70.24;100127.78;5012594;28;20257;-72
2022/08/14 03:03:16;;;;;;;7.03;6.60;;;;;;;20.41;70.84;100114.41;5012421;28;20224;-72
2022/08/14 03:05:44;;;;;;;6.83;6.43;;;;;;;20.33;71.12;100108.75;5012163;28;20231;-73
2022/08/14 03:08:13;;;;;;;7.63;7.20;;;;;;;20.31;71.58;100092.09;5012124;28;20676;-73
2022/08/14 03:10:40;;;;;;;7.40;6.77;;;;;;;20.22;71.88;100076.81;5012522;28;20217;-72
2022/08/14 03:13:06;;;;;;;7.10;6.60;;;;;;;20.19;72.05;100075.19;5012155;28;20235;-72
2022/08/14 03:15:35;;;;;;;6.53;6.13;;;;;;;20.17;72.17;100063.00;5012067;28;20639;-72
2022/08/14 03:18:03;;;;;;;6.80;6.40;;;;;;;20.16;72.45;100064.81;5012531;28;20202;-72
2022/08/14 03:20:30;;;;;;;7.57;6.97;;;;;;;20.11;72.66;100076.66;5012249;28;20356;-72
2022/08/14 03:22:59;;;;;;;7.27;6.80;;;;;;;20.10;72.73;100056.41;5011898;28;20231;-72
2022/08/14 03:25:25;;;;;;;6.97;6.40;;;;;;;20.06;72.27;100071.66;5012090;28;20250;-72
2022/08/14 03:27:52;;;;;;;7.03;6.53;;;;;;;20.01;72.91;100055.19;5011952;28;20206;-72
2022/08/14 03:30:18;;;;;;;7.00;6.60;;;;;;;20.02;73.01;100054.28;5012282;28;20210;-72
2022/08/14 03:32:45;;;;;;;7.13;6.63;;;;;;;20.06;73.06;100047.81;5012213;28;20272;-72
2022/08/14 03:35:11;;;;;;;6.57;6.17;;;;;;;20.06;73.05;100055.78;5011894;28;20217;-73
2022/08/14 03:37:38;;;;;;;7.23;6.50;;;;;;;20.04;73.50;100047.06;5012029;28;20203;-72
2022/08/14 03:40:10;;;;;;;7.20;6.60;;;;;;;19.95;73.97;100031.75;5012018;28;20249;-72
2022/08/14 03:42:38;;;;;;;7.03;6.47;;;;;;;19.92;73.91;100026.63;5011923;28;20601;-72
2022/08/14 03:45:05;;;;;;;7.00;6.60;;;;;;;19.90;74.33;100008.22;5011535;28;20210;-72
2022/08/14 03:47:39;;;;;;;6.90;6.50;;;;;;;19.99;73.25;100025.31;5012031;28;20233;-72
2022/08/14 03:50:08;;;;;;;7.00;6.50;;;;;;;19.97;73.59;100036.00;5012041;28;20211;-72
2022/08/14 03:52:35;;;;;;;6.87;6.47;;;;;;;19.93;73.94;100023.06;5012176;28;20595;-73
2022/08/14 03:55:02;;;;;;;7.07;6.47;;;;;;;19.91;74.02;100019.66;5011834;28;20582;-72
2022/08/14 03:57:31;;;;;;;8.03;7.27;;;;;;;19.93;74.04;100025.72;5011844;28;20206;-72
2022/08/14 04:00:01;;;;;;;7.03;6.60;;;;;;;19.97;73.40;100037.81;5011408;28;20842;-72
2022/08/14 04:02:28;;;;;;;6.90;6.50;;;;;;;20.00;73.59;100038.47;5011786;28;20644;-72
2022/08/14 04:04:54;;;;;;;7.20;6.70;;;;;;;20.02;73.10;100059.56;5011748;28;20261;-72
2022/08/14 04:07:21;;;;;;;6.90;6.30;;;;;;;20.02;73.50;100056.91;5011872;28;20227;-72
2022/08/14 04:09:48;;;;;;;7.03;6.63;;;;;;;19.91;74.49;100022.31;5011679;28;20217;-72
2022/08/14 04:12:14;;;;;;;7.70;7.10;;;;;;;19.87;74.63;100024.31;5012124;28;20258;-73
2022/08/14 04:14:42;;;;;;;7.37;6.77;;;;;;;19.90;74.24;100023.25;5011671;28;20257;-72
2022/08/14 04:17:10;;;;;;;6.90;6.50;;;;;;;19.93;74.03;100023.91;5011941;28;20214;-72
2022/08/14 04:19:36;;;;;;;6.83;6.43;;;;;;;20.01;73.41;100040.16;5011969;28;20237;-72
2022/08/14 04:22:03;;;;;;;6.90;6.37;;;;;;;20.07;73.44;100052.16;5011836;28;20214;-72
2022/08/14 04:24:29;;;;;;;7.23;6.73;;;;;;;20.11;73.20;100060.75;5012032;28;20719;-72
2022/08/14 04:26:56;;;;;;;6.87;6.47;;;;;;;20.06;73.43;100061.06;5011003;28;20731;-72
2022/08/14 04:29:22;;;;;;;8.00;7.40;;;;;;;19.93;74.55;100026.56;5011439;28;20261;-72
2022/08/14 04:31:50;;;;;;;7.10;6.70;;;;;;;19.93;74.60;100023.06;5011794;28;20249;-72
2022/08/14 04:34:17;;;;;;;7.23;6.63;;;;;;;19.92;74.42;100027.50;5011743;28;20566;-72
2022/08/14 04:44:52;;;;;;;7.37;6.70;;;;;;;19.93;74.04;100044.25;5014784;28;20205;-73
2022/08/14 04:50:04;;;;;;;7.30;6.90;;;;;;;19.81;74.93;100032.66;5015030;28;20213;-73
2022/08/14 04:52:31;;;;;;;7.63;7.13;;;;;;;19.80;74.93;100026.50;5014761;28;20226;-73
2022/08/14 04:54:58;;;;;;;7.83;7.43;;;;;;;19.76;75.29;100017.06;5014865;28;20203;-73
2022/08/14 04:57:24;;;;;;;8.13;7.67;;;;;;;19.86;74.86;100022.63;5014667;28;20249;-72
2022/08/14 04:59:51;;;;;;;8.00;7.50;;;;;;;19.94;74.99;100022.09;5014307;28;20199;-73
2022/08/14 05:02:26;;;;;;;7.97;7.47;;;;;;;19.90;75.44;100002.06;5014610;28;20239;-73
2022/08/14 05:04:52;;;;;;;8.23;7.63;;;;;;;19.87;75.94;99981.91;5014876;28;20277;-72
2022/08/14 05:07:19;;;;;;;7.77;7.17;;;;;;;19.91;75.78;99978.13;5014749;28;20272;-73
2022/08/14 05:09:45;;;;;;;8.43;7.90;;;;;;;19.88;76.53;99967.75;5014431;28;20280;-73
2022/08/14 05:12:11;;;;;;;7.50;7.03;;;;;;;19.93;76.02;99978.03;5014752;28;20277;-73
2022/08/14 05:14:38;;;;;;;8.53;8.03;;;;;;;19.94;76.21;99992.94;5014416;28;20262;-74
2022/08/14 05:17:04;;;;;;;8.27;7.33;;;;;;;20.07;75.42;100001.81;5014316;28;20211;-73
2022/08/14 05:19:32;;;;;;;7.73;7.23;;;;;;;20.10;75.86;100004.28;5014548;28;20668;-73
2022/08/14 05:21:59;;;;;;;7.90;7.30;;;;;;;20.14;75.53;100005.75;5014199;28;20681;-73
2022/08/14 05:24:25;;;;;;;7.70;7.07;;;;;;;20.22;75.43;100013.22;5014158;28;20211;-73
2022/08/14 05:26:52;;;;;;;7.23;6.77;;;;;;;20.28;75.10;100028.72;5014281;28;20284;-73
2022/08/14 05:29:18;;;;;;;8.10;7.60;;;;;;;20.32;75.33;100013.47;5013722;28;20546;-73
2022/08/14 05:31:44;;;;;;;8.60;8.10;;;;;;;20.38;74.71;100037.75;5014432;28;20269;-73
2022/08/14 05:34:11;;;;;;;7.77;7.37;;;;;;;20.43;74.74;100045.38;5014171;28;20724;-73
2022/08/14 05:36:39;;;;;;;8.17;7.67;;;;;;;20.50;74.25;100056.44;5013799;28;20203;-74
2022/08/14 05:39:06;;;;;;;8.97;8.47;;;;;;;20.54;74.17;100063.25;5013904;28;20214;-73
2022/08/14 05:41:33;;;;;;;8.53;7.90;;;;;;;20.55;74.67;100054.31;5014083;28;20310;-73
2022/08/14 05:44:00;;;;;;;7.83;7.33;;;;;;;20.59;73.88;100064.69;5013785;28;20233;-73
2022/08/14 05:46:27;;;;;;;8.10;7.67;;;;;;;20.63;73.64;100068.81;5013617;28;20296;-73
2022/08/14 05:48:55;;;;;;;9.30;8.30;;;;;;;20.71;73.28;100076.25;5014044;28;20216;-73
2022/08/14 05:51:22;;;;;;;8.60;8.10;;;;;;;20.76;73.03;100076.78;5013027;28;20210;-73
2022/08/14 05:53:50;;;;;;;9.20;8.70;;;;;;;20.82;72.80;100075.53;5013540;28;20261;-72
2022/08/14 05:56:17;;;;;;;9.57;8.97;;;;;;;20.91;72.98;100082.88;5013666;28;20603;-72
2022/08/14 05:58:43;;;;;;;9.27;8.60;;;;;;;20.96;73.63;100062.19;5013512;28;20203;-72
2022/08/14 06:01:10;;;;;;;10.63;9.73;;;;;;;21.00;73.16;100066.31;5013620;28;20260;-72
2022/08/14 06:03:36;;;;;;;9.77;9.10;;;;;;;21.03;73.14;100076.72;5013734;28;20223;-72
2022/08/14 06:06:03;;;;;;;11.47;9.93;;;;;;;21.13;72.84;100084.03;5013665;28;20619;-72
2022/08/14 06:08:31;;;;;;;10.33;9.60;;;;;;;21.17;72.29;100102.34;5013363;28;20237;-72
2022/08/14 06:11:05;;;;;;;10.47;9.17;;;;;;;21.23;71.90;100101.91;5013378;28;20252;-72
2022/08/14 06:13:32;;;;;;;9.43;8.83;;;;;;;21.32;71.59;100108.38;5013184;28;20222;-72
2022/08/14 06:15:59;;;;;;;8.73;8.13;;;;;;;21.34;71.80;100102.97;5013094;28;20207;-72
2022/08/14 06:18:26;;;;;;;8.87;8.07;;;;;;;21.44;71.52;100116.50;5013642;28;20265;-72
2022/08/14 06:20:53;;;;;;;9.57;8.97;;;;;;;21.46;71.47;100114.56;5013113;28;20206;-72
2022/08/14 06:23:19;;;;;;;8.53;8.03;;;;;;;21.54;70.80;100121.03;5013381;28;20234;-72
2022/08/14 06:25:46;;;;;;;9.10;8.40;;;;;;;21.62;70.88;100128.47;5013134;28;20211;-72
2022/08/14 06:28:17;;;;;;;9.47;8.87;;;;;;;21.65;70.48;100138.91;5012635;28;20704;-72
2022/08/14 06:30:44;;;;;;;8.97;8.43;;;;;;;21.69;70.36;100135.06;5013207;28;20257;-72
2022/08/14 06:33:10;;;;;;;10.53;9.67;;;;;;;21.76;70.40;100138.13;5012849;28;20227;-72
2022/08/14 06:35:37;;;;;;;9.13;8.53;;;;;;;21.77;70.39;100148.66;5013019;28;20261;-72
2022/08/14 06:38:04;;;;;;;9.47;8.93;;;;;;;21.83;70.22;100146.53;5012652;28;20262;-72
2022/08/14 06:40:32;;;;;;;9.90;9.00;;;;;;;21.91;70.09;100154.81;5012709;28;20218;-72
2022/08/14 06:43:00;;;;;;;9.63;9.03;;;;;;;21.96;69.99;100152.66;5012776;28;20285;-72
2022/08/14 06:45:29;;;;;;;9.50;8.80;;;;;;;21.99;70.08;100152.44;5012256;28;20210;-72
2022/08/14 06:47:55;;;;;;;9.03;8.53;;;;;;;22.05;69.87;100162.66;5012864;28;20326;-72
2022/08/14 06:50:24;;;;;;;9.23;8.43;;;;;;;22.11;69.96;100166.69;5012787;28;20221;-72
2022/08/14 06:52:50;;;;;;;8.63;8.10;;;;;;;22.16;69.44;100170.72;5012618;28;20633;-72
2022/08/14 06:55:17;;;;;;;9.80;9.10;;;;;;;22.21;69.25;100183.66;5012457;28;20202;-72
2022/08/14 06:57:46;;;;;;;8.83;8.23;;;;;;;22.26;69.30;100188.69;5012484;28;20225;-72
2022/08/14 07:00:15;;;;;;;8.80;8.30;;;;;;;22.31;69.36;100174.09;5012195;28;20207;-72
2022/08/14 07:05:45;;;;;;;9.43;8.60;;;;;;;22.43;68.97;100188.31;5012530;28;20214;-72
2022/08/14 07:08:13;;;;;;;8.83;8.23;;;;;;;22.51;68.80;100185.09;5012508;28;20226;-74
2022/08/14 07:10:42;;;;;;;9.40;8.70;;;;;;;22.54;68.87;100187.53;5012425;28;20249;-73
2022/08/14 07:13:09;;;;;;;9.13;8.53;;;;;;;22.61;68.99;100186.13;5012080;28;20232;-73
2022/08/14 07:15:35;;;;;;;9.60;9.00;;;;;;;22.69;68.58;100183.75;5011984;28;20211;-73
2022/08/14 07:18:04;;;;;;;8.93;8.40;;;;;;;22.75;68.35;100191.25;5012563;28;20211;-73
2022/08/14 07:20:31;;;;;;;9.33;8.73;;;;;;;22.80;68.60;100190.94;5011191;28;20290;-73
2022/08/14 07:22:59;;;;;;;9.77;9.17;;;;;;;22.85;69.28;100174.63;5011458;28;20269;-73
2022/08/14 07:25:26;;;;;;;9.37;8.77;;;;;;;22.86;68.76;100181.66;5011712;28;20293;-73
2022/08/14 07:27:53;;;;;;;9.10;8.30;;;;;;;22.96;68.65;100188.00;5011768;28;20217;-73
2022/08/14 07:30:20;;;;;;;8.87;8.37;;;;;;;23.05;68.60;100195.28;5011657;28;20265;-73
2022/08/14 07:32:46;;;;;;;8.97;8.40;;;;;;;23.16;67.96;100218.47;5011647;28;20218;-73
2022/08/14 07:35:14;;;;;;;10.13;9.27;;;;;;;23.24;67.56;100231.22;5011459;28;20249;-73
2022/08/14 07:37:41;;;;;;;9.57;8.97;;;;;;;23.30;67.46;100236.06;5011523;28;20837;-72
2022/08/14 07:40:09;;;;;;;8.93;8.43;;;;;;;23.33;68.03;100222.50;5011454;28;20215;-73
2022/08/14 07:42:35;;;;;;;9.57;8.97;;;;;;;23.40;66.86;100231.75;5011632;28;20219;-73
2022/08/14 07:45:02;;;;;;;9.83;9.20;;;;;;;23.46;67.13;100239.25;5011094;28;20734;-73
2022/08/14 07:47:28;;;;;;;9.37;8.77;;;;;;;23.52;67.62;100213.97;5011539;28;20226;-73
2022/08/14 07:50:00;;;;;;;9.03;8.43;;;;;;;23.62;67.03;100238.09;5011299;28;20333;-73
2022/08/14 07:52:29;;;;;;;10.10;9.40;;;;;;;23.69;66.98;100250.84;5013591;28;20222;-76
2022/08/14 07:54:56;;;;;;;10.17;9.40;;;;;;;23.75;66.48;100265.50;5011373;28;20257;-76
2022/08/14 07:57:23;;;;;;;10.10;9.20;;;;;;;23.77;66.99;100236.91;5011756;28;20199;-76
2022/08/14 07:59:49;;;;;;;9.50;8.90;;;;;;;23.79;67.60;100227.03;5008475;28;20199;-76
2022/08/14 08:02:17;;;;;;;9.73;9.03;;;;;;;23.87;66.76;100235.25;5011408;28;20234;-76
2022/08/14 08:04:46;;;;;;;10.00;9.30;;;;;;;23.92;65.97;100272.22;5011114;28;20199;-77
2022/08/14 08:07:13;;;;;;;9.90;9.20;;;;;;;23.99;65.69;100276.97;5011270;28;20690;-76
2022/08/14 08:09:46;;;;;;;8.77;8.17;;;;;;;24.04;65.02;100307.75;5011496;28;20245;-77
2022/08/14 08:12:14;;;;;;;10.13;9.53;;;;;;;24.08;64.98;100303.88;5009152;28;20230;-77
2022/08/14 08:14:42;;;;;;;9.93;9.23;;;;;;;24.15;64.98;100284.59;5012323;28;20552;-76
2022/08/14 08:17:09;;;;;;;10.07;9.47;;;;;;;24.24;64.36;100307.06;5015085;28;20202;-77
2022/08/14 08:19:36;;;;;;;9.60;8.90;;;;;;;24.30;65.24;100292.38;5015081;28;20214;-77
2022/08/14 08:22:03;;;;;;;10.20;9.20;;;;;;;24.38;64.67;100277.47;5015196;28;20237;-77
2022/08/14 08:24:29;;;;;;;9.40;8.80;;;;;;;24.51;64.00;100325.41;5015035;28;20205;-77
2022/08/14 08:26:57;;;;;;;9.93;9.23;;;;;;;24.60;64.25;100325.63;5014767;28;20203;-77
2022/08/14 08:29:24;;;;;;;9.83;9.23;;;;;;;24.62;63.39;100339.69;5006813;28;20200;-77
2022/08/14 08:31:52;;;;;;;10.80;10.03;;;;;;;24.70;62.92;100342.63;5000752;28;20199;-77
2022/08/14 08:34:19;;;;;;;9.33;8.77;;;;;;;24.74;62.32;100371.63;4996863;28;20216;-77
2022/08/14 08:36:46;;;;;;;9.30;8.70;;;;;;;24.84;61.46;100397.59;4996269;28;20211;-77
2022/08/14 08:39:13;;;;;;;10.23;9.40;;;;;;;24.86;62.20;100388.50;4996555;28;20219;-77
2022/08/14 08:41:41;;;;;;;9.83;9.03;;;;;;;24.93;61.36;100391.50;4996563;28;20238;-76
2022/08/14 08:44:09;;;;;;;10.00;9.30;;;;;;;24.96;61.75;100385.94;4996291;28;20227;-77
2022/08/14 08:46:35;;;;;;;9.37;8.70;;;;;;;25.06;61.21;100375.34;4996724;28;20321;-77
2022/08/14 08:49:02;;;;;;;9.43;8.73;;;;;;;25.10;61.09;100401.69;5002938;28;20230;-77
2022/08/14 08:51:30;;;;;;;10.37;9.67;;;;;;;25.13;61.94;100374.75;5015825;28;20206;-77
2022/08/14 08:53:59;;;;;;;9.40;8.60;;;;;;;25.19;61.15;100373.38;5016281;28;20227;-77
2022/08/14 08:56:34;;;;;;;9.03;8.43;;;;;;;25.24;59.96;100424.66;5015514;28;20265;-77
2022/08/14 08:59:01;;;;;;;8.87;8.27;;;;;;;25.30;60.17;100402.78;5015651;28;20683;-77
2022/08/14 09:01:30;;;;;;;8.80;8.10;;;;;;;25.38;59.91;100412.84;5015699;28;20592;-77
2022/08/14 09:04:01;;;;;;;9.17;8.57;;;;;;;25.44;59.68;100423.03;5015958;28;20242;-77
2022/08/14 09:06:28;;;;;;;9.40;8.70;;;;;;;25.52;58.61;100455.31;5015465;28;20211;-77
2022/08/14 09:08:54;;;;;;;9.43;8.83;;;;;;;25.59;58.53;100465.50;5015202;28;20230;-77
2022/08/14 09:11:23;;;;;;;8.83;8.20;;;;;;;25.62;59.57;100419.81;5015328;28;20210;-77
2022/08/14 09:13:50;;;;;;;8.40;7.80;;;;;;;25.70;56.96;100470.84;5015386;28;20317;-77
2022/08/14 09:16:20;;;;;;;7.40;6.90;;;;;;;25.73;56.36;100518.72;5015883;28;20207;-77
2022/08/14 09:18:48;;;;;;;7.77;7.37;;;;;;;25.73;57.94;100482.13;5016352;28;20690;-77
2022/08/14 09:21:15;;;;;;;8.23;7.63;;;;;;;25.81;57.80;100460.09;5016428;28;20669;-78
2022/08/14 09:23:41;;;;;;;8.10;7.60;;;;;;;25.89;58.35;100463.00;5014369;28;20732;-77
2022/08/14 09:26:08;;;;;;;8.47;7.87;;;;;;;25.98;57.66;100455.22;5013943;28;20617;-77
2022/08/14 09:28:34;;;;;;;8.50;7.87;;;;;;;26.03;56.66;100482.44;5014273;28;20231;-77
2022/08/14 09:31:02;;;;;;;8.73;8.13;;;;;;;26.07;56.36;100505.28;5013998;28;20677;-77
2022/08/14 09:33:47;;;;;;;8.80;8.20;;;;;;;26.12;55.65;100513.75;5014230;28;20281;-77
2022/08/14 09:36:27;;;;;;;7.97;7.47;;;;;;;26.13;57.57;100460.13;5013765;28;20206;-77
2022/08/14 09:39:05;;;;;;;8.20;7.67;;;;;;;26.21;57.35;100419.34;5014059;28;20218;-77
2022/08/14 09:41:42;;;;;;;9.33;8.57;;;;;;;26.27;56.97;100456.28;5014218;28;20293;-77
2022/08/14 09:44:18;;;;;;;9.70;9.10;;;;;;;26.38;55.15;100492.81;5014419;28;20230;-76
2022/08/14 09:46:52;;;;;;;7.97;7.47;;;;;;;26.36;55.10;100508.16;5013726;28;20265;-77
2022/08/14 09:49:30;;;;;;;8.33;7.73;;;;;;;26.38;54.36;100519.59;5014025;28;20222;-76
2022/08/14 09:52:06;;;;;;;8.33;7.83;;;;;;;26.44;53.75;100534.28;5007141;28;20213;-77
2022/08/14 09:54:38;;;;;;;8.77;8.27;;;;;;;26.47;54.04;100531.38;5013893;28;20345;-76
2022/08/14 09:57:06;;;;;;;8.93;8.30;;;;;;;26.52;54.18;100519.28;5013522;28;20238;-76
2022/08/14 09:59:40;;;;;;;8.77;8.20;;;;;;;26.56;53.53;100535.94;5013515;28;20210;-76
2022/08/14 10:02:21;;;;;;;8.90;8.37;;;;;;;26.61;53.89;100511.47;5013903;28;20213;-77
2022/08/14 10:04:59;;;;;;;9.57;8.93;;;;;;;26.68;53.62;100508.16;5013378;28;20203;-77
2022/08/14 10:07:33;;;;;;;8.87;8.27;;;;;;;26.75;53.69;100528.06;5013444;28;20265;-76
2022/08/14 10:10:00;;;;;;;9.17;8.57;;;;;;;26.82;53.39;100500.75;5013830;28;20218;-76
2022/08/14 10:12:41;;;;;;;8.70;8.10;;;;;;;26.87;52.12;100536.88;5013583;28;20284;-77
2022/08/14 10:15:18;;;;;;;8.43;7.93;;;;;;;26.97;52.15;100561.03;5013069;28;20206;-76
2022/08/14 10:17:45;;;;;;;8.90;8.27;;;;;;;27.03;51.96;100559.66;5013186;28;20677;-76
2022/08/14 10:20:13;;;;;;;8.37;7.70;;;;;;;27.12;52.24;100546.31;5013410;28;20257;-77
2022/08/14 10:22:41;;;;;;;8.60;8.10;;;;;;;27.19;51.13;100567.22;5012991;28;20739;-77
2022/08/14 10:25:13;;;;;;;8.40;7.87;;;;;;;27.26;51.41;100580.00;5013095;28;20688;-75
2022/08/14 10:27:43;;;;;;;8.60;8.10;;;;;;;27.35;51.22;100602.44;5013322;28;20582;-75
2022/08/14 10:30:15;;;;;;;8.77;7.97;;;;;;;27.43;50.06;100594.63;5012849;28;20305;-75
2022/08/14 10:32:46;;;;;;;8.17;7.67;;;;;;;27.49;49.48;100620.00;5012986;28;20230;-75
2022/08/14 10:35:14;;;;;;;8.23;7.63;;;;;;;27.55;48.70;100646.28;5012919;28;20206;-75
2022/08/14 10:37:46;;;;;;;8.67;8.07;;;;;;;27.59;48.62;100668.34;5012653;28;20211;-75
2022/08/14 10:40:16;;;;;;;8.17;7.67;;;;;;;27.64;49.19;100645.50;5012896;28;20265;-75
2022/08/14 10:42:45;;;;;;;8.23;7.63;;;;;;;27.69;48.89;100620.94;5012998;28;20227;-74
2022/08/14 10:45:23;;;;;;;8.17;7.57;;;;;;;27.76;48.48;100646.25;5012534;28;20210;-76
2022/08/14 10:47:52;;;;;;;7.93;7.43;;;;;;;27.81;48.52;100644.03;5012699;28;20755;-76
2022/08/14 10:50:30;;;;;;;8.60;8.03;;;;;;;27.87;48.73;100621.16;5012826;28;20206;-75
2022/08/14 10:52:59;;;;;;;8.57;7.97;;;;;;;27.96;47.87;100639.16;4993149;28;20230;-75
2022/08/14 10:55:32;;;;;;;8.90;8.27;;;;;;;28.03;48.82;100624.19;4992742;28;20242;-75
2022/08/14 10:57:59;;;;;;;8.27;7.77;;;;;;;28.15;47.17;100643.72;4993034;28;20597;-75
2022/08/14 11:00:28;;;;;;;8.70;8.13;;;;;;;28.20;46.84;100659.41;4992839;28;20261;-75
2022/08/14 11:02:59;;;;;;;7.97;7.47;;;;;;;28.27;47.70;100642.59;4992919;28;20230;-76
2022/08/14 11:05:26;;;;;;;9.17;8.63;;;;;;;28.37;48.34;100626.50;4992519;28;20211;-75
2022/08/14 11:08:00;;;;;;;9.20;8.50;;;;;;;28.50;47.10;100639.66;4992728;28;20203;-76
2022/08/14 11:10:40;;;;;;;9.10;8.60;;;;;;;28.62;46.38;100676.19;4992935;28;20218;-76
2022/08/14 11:13:07;;;;;;;8.80;8.30;;;;;;;28.68;46.70;100667.56;4992888;28;20234;-75
2022/08/14 11:15:34;;;;;;;8.90;8.30;;;;;;;28.77;45.93;100659.66;4992485;28;20207;-76
2022/08/14 11:18:02;;;;;;;9.03;8.53;;;;;;;28.86;46.35;100688.31;4992866;28;20671;-75
2022/08/14 11:20:30;;;;;;;8.60;8.00;;;;;;;28.95;45.91;100668.69;5010371;28;20215;-75
2022/08/14 11:23:00;;;;;;;8.60;8.10;;;;;;;29.09;44.86;100694.25;5012455;28;20226;-76
2022/08/14 11:25:30;;;;;;;9.13;8.63;;;;;;;29.18;44.82;100716.78;5012067;28;20217;-75
2022/08/14 11:27:59;;;;;;;9.30;8.60;;;;;;;29.30;44.83;100723.72;5012435;28;20206;-76
2022/08/14 11:30:27;;;;;;;9.00;8.50;;;;;;;29.39;45.18;100693.25;5011953;28;20202;-76
2022/08/14 11:32:54;;;;;;;8.87;8.17;;;;;;;29.57;44.13;100701.41;5012130;28;20787;-76
2022/08/14 11:35:22;;;;;;;9.23;8.63;;;;;;;29.75;43.69;100739.19;5012061;28;20210;-76
2022/08/14 11:37:54;;;;;;;9.20;8.50;;;;;;;30.38;44.57;100692.72;5012160;28;20207;-75
2022/08/14 11:40:23;;;;;;;9.20;8.57;;;;;;;31.70;40.19;100804.56;5011944;28;20210;-76
2022/08/14 11:42:52;;;;;;;8.93;8.40;;;;;;;33.22;38.75;100888.56;5011972;28;20313;-76
2022/08/14 11:45:19;;;;;;;8.40;7.80;;;;;;;34.58;35.08;101040.69;5011541;28;20198;-76